createdAt,value
2018-04-06T00:02:23.128Z,0
2018-04-06T00:07:23.249Z,0
2018-04-06T00:12:23.449Z,0
2018-04-06T00:17:23.662Z,0
2018-04-06T00:22:23.072Z,0
2018-04-06T00:27:23.186Z,0
2018-04-06T00:32:22.807Z,0
2018-04-06T00:37:22.857Z,0
2018-04-06T00:42:23.011Z,0
2018-04-06T00:47:23.742Z,0
2018-04-06T00:52:23.567Z,0
2018-04-06T00:57:22.940Z,0
2018-04-06T01:02:23.416Z,0
2018-04-06T01:07:22.910Z,0
2018-04-06T01:12:23.772Z,0
2018-04-06T01:17:23.282Z,0
2018-04-06T01:22:23.065Z,0
2018-04-06T01:27:23.477Z,0
2018-04-06T01:32:23.410Z,0
2018-04-06T01:37:23.889Z,0
2018-04-06T01:42:23.792Z,0
2018-04-06T01:47:23.014Z,0
2018-04-06T01:52:23.287Z,0
2018-04-06T01:57:23.569Z,0
2018-04-06T02:02:24.016Z,0
2018-04-06T02:07:23.199Z,0
2018-04-06T02:12:23.720Z,0
2018-04-06T02:17:23.097Z,0
2018-04-06T02:22:23.426Z,0
2018-04-06T02:27:23.601Z,0
2018-04-06T02:32:23.020Z,0
2018-04-06T02:37:23.719Z,0
2018-04-06T02:42:23.385Z,0
2018-04-06T02:47:23.769Z,0
2018-04-06T02:52:22.868Z,0
2018-04-06T02:57:23.383Z,0
2018-04-06T03:02:23.819Z,0
2018-04-06T03:07:23.968Z,0
2018-04-06T03:12:23.347Z,0
2018-04-06T03:17:23.632Z,0
2018-04-06T03:22:23.706Z,0
2018-04-06T03:27:23.835Z,0
2018-04-06T03:32:23.005Z,0
2018-04-06T03:37:23.243Z,0
2018-04-06T03:42:23.566Z,0
2018-04-06T03:47:23.992Z,0
2018-04-06T03:52:23.381Z,0
2018-04-06T03:57:23.676Z,0
2018-04-06T04:02:24.311Z,0
2018-04-06T04:07:23.630Z,0
2018-04-06T04:12:23.741Z,0
2018-04-06T04:17:23.025Z,0
2018-04-06T04:22:23.274Z,0
2018-04-06T04:27:23.758Z,0
2018-04-06T04:32:23.585Z,0
2018-04-06T04:37:23.584Z,0
2018-04-06T04:42:23.123Z,0
2018-04-06T04:47:23.502Z,1.7
2018-04-06T04:52:23.908Z,1.7
2018-04-06T04:57:23.185Z,7
2018-04-06T05:02:23.635Z,7
2018-04-06T05:07:23.933Z,9.7
2018-04-06T05:12:23.445Z,9.7
2018-04-06T05:17:24.012Z,16.5
2018-04-06T05:22:23.281Z,16.5
2018-04-06T05:27:23.746Z,21
2018-04-06T05:32:24.178Z,21
2018-04-06T05:37:23.610Z,30.7
2018-04-06T05:42:24.042Z,30.7
2018-04-06T05:47:23.535Z,40
2018-04-06T05:52:23.809Z,40
2018-04-06T05:57:24.036Z,44.2
2018-04-06T06:02:23.478Z,44.2
2018-04-06T06:07:23.678Z,35
2018-04-06T06:12:23.928Z,35
2018-04-06T06:17:24.167Z,35
2018-04-06T06:22:23.535Z,35
2018-04-06T06:27:23.930Z,39.7
2018-04-06T06:32:23.297Z,39.7
2018-04-06T06:37:23.549Z,43.3
2018-04-06T06:42:23.824Z,43.3
2018-04-06T06:47:24.185Z,47
2018-04-06T06:52:23.795Z,47
2018-04-06T06:57:24.096Z,51.7
2018-04-06T07:02:23.613Z,51.7
2018-04-06T07:07:23.854Z,270.2
2018-04-06T07:12:24.241Z,270.2
2018-04-06T07:17:23.490Z,297
2018-04-06T07:22:23.621Z,297
2018-04-06T07:27:23.754Z,326.3
2018-04-06T07:32:24.164Z,326.3
2018-04-06T07:37:23.644Z,347.3
2018-04-06T07:42:23.888Z,347.3
2018-04-06T07:47:24.400Z,382
2018-04-06T07:52:23.601Z,382
2018-04-06T07:57:23.826Z,395
2018-04-06T08:02:24.173Z,395
2018-04-06T08:07:23.372Z,418.8
2018-04-06T08:12:23.509Z,418.8
2018-04-06T08:17:23.645Z,416
2018-04-06T08:22:23.825Z,416
2018-04-06T08:27:24.083Z,459
2018-04-06T08:32:23.492Z,459
2018-04-06T08:37:23.780Z,482
2018-04-06T08:42:24.092Z,482
2018-04-06T08:47:23.374Z,500.7
2018-04-06T08:52:23.645Z,500.7
2018-04-06T08:57:23.868Z,516.3
2018-04-06T09:02:24.306Z,516.3
2018-04-06T09:07:23.580Z,534.2
2018-04-06T09:12:24.274Z,534.2
2018-04-06T09:17:23.788Z,551
2018-04-06T09:22:24.362Z,551
2018-04-06T09:27:23.669Z,565.7
2018-04-06T09:32:23.976Z,565.7
2018-04-06T09:37:24.403Z,574.5
2018-04-06T09:42:23.808Z,574.5
2018-04-06T09:47:24.175Z,591.5
2018-04-06T09:52:23.690Z,591.5
2018-04-06T09:57:23.960Z,605
2018-04-06T10:02:24.293Z,605
2018-04-06T10:07:23.505Z,613
2018-04-06T10:12:23.729Z,613
2018-04-06T10:17:24.052Z,621.3
2018-04-06T10:22:24.378Z,621.3
2018-04-06T10:27:23.723Z,634
2018-04-06T10:32:23.902Z,634
2018-04-06T10:37:24.143Z,639.3
2018-04-06T10:42:23.475Z,639.3
2018-04-06T10:47:23.790Z,646.3
2018-04-06T10:52:24.000Z,646.3
2018-04-06T10:57:24.184Z,649.3
2018-04-06T11:02:23.613Z,649.3
2018-04-06T11:07:23.731Z,654.7
2018-04-06T11:12:24.017Z,654.7
2018-04-06T11:17:24.268Z,655.8
2018-04-06T11:22:23.671Z,655.8
2018-04-06T11:27:24.201Z,659.7
2018-04-06T11:32:24.596Z,659.7
2018-04-06T11:37:24.059Z,664.7
2018-04-06T11:42:24.361Z,664.7
2018-04-06T11:47:23.565Z,664
2018-04-06T11:52:23.812Z,664
2018-04-06T11:57:24.062Z,658
2018-04-06T12:02:24.507Z,658
2018-04-06T12:07:23.599Z,657
2018-04-06T12:12:23.793Z,657
2018-04-06T12:17:24.116Z,647.8
2018-04-06T12:22:24.511Z,647.8
2018-04-06T12:27:23.712Z,634.8
2018-04-06T12:32:23.904Z,634.8
2018-04-06T12:37:24.053Z,613.2
2018-04-06T12:42:24.364Z,613.2
2018-04-06T12:47:23.625Z,624.2
2018-04-06T12:52:23.828Z,624.2
2018-04-06T12:57:24.033Z,606
2018-04-06T13:02:24.207Z,606
2018-04-06T13:07:24.445Z,613
2018-04-06T13:12:23.923Z,613
2018-04-06T13:17:24.228Z,568.5
2018-04-06T13:22:24.685Z,568.5
2018-04-06T13:27:23.959Z,567.5
2018-04-06T13:32:24.647Z,567.5
2018-04-06T13:37:23.837Z,505
2018-04-06T13:42:24.207Z,505
2018-04-06T13:47:24.471Z,543
2018-04-06T13:52:23.683Z,543
2018-04-06T13:57:23.897Z,513.5
2018-04-06T14:02:24.235Z,513.5
2018-04-06T14:07:24.563Z,505
2018-04-06T14:12:23.702Z,505
2018-04-06T14:17:23.747Z,476
2018-04-06T14:22:23.814Z,476
2018-04-06T14:27:23.844Z,490.8
2018-04-06T14:32:23.956Z,490.8
2018-04-06T14:37:24.129Z,414
2018-04-06T14:42:24.284Z,414
2018-04-06T14:47:24.535Z,405
2018-04-06T14:52:24.725Z,405
2018-04-06T14:57:24.034Z,366
2018-04-06T15:02:24.382Z,366
2018-04-06T15:07:24.580Z,405.3
2018-04-06T15:12:23.797Z,405.3
2018-04-06T15:17:24.156Z,388.3
2018-04-06T15:22:24.481Z,388.3
2018-04-06T15:27:24.677Z,351.8
2018-04-06T15:32:23.900Z,351.8
2018-04-06T15:37:24.234Z,330.7
2018-04-06T15:42:24.587Z,330.7
2018-04-06T15:47:23.830Z,280.7
2018-04-06T15:52:24.034Z,280.7
2018-04-06T15:57:24.179Z,230
2018-04-06T16:02:24.473Z,230
2018-04-06T16:12:24.747Z,53
2018-04-06T16:17:23.969Z,50.3
2018-04-06T16:22:24.206Z,50.3
2018-04-06T16:27:24.475Z,46
2018-04-06T16:32:24.983Z,46
2018-04-06T16:37:24.204Z,44
2018-04-06T16:42:24.544Z,44
2018-04-06T16:47:24.679Z,42
2018-04-06T16:52:23.866Z,42
2018-04-06T16:57:24.139Z,44
2018-04-06T17:02:24.519Z,44
2018-04-06T17:07:24.814Z,49
2018-04-06T17:12:24.087Z,49
2018-04-06T17:17:24.288Z,47.7
2018-04-06T17:22:24.472Z,47.7
2018-04-06T17:27:24.704Z,35
2018-04-06T17:32:23.972Z,35
2018-04-06T17:37:25.187Z,23.7
2018-04-06T17:42:24.511Z,23.7
2018-04-06T17:47:24.677Z,13.3
2018-04-06T17:52:23.923Z,13.3
2018-04-06T17:57:24.323Z,6.3
2018-04-06T18:02:24.597Z,6.3
2018-04-06T18:07:24.963Z,0
2018-04-06T18:12:24.049Z,0
2018-04-06T18:17:24.245Z,0
2018-04-06T18:22:24.627Z,0
2018-04-06T18:27:24.759Z,0
2018-04-06T18:32:24.131Z,0
2018-04-06T18:37:24.481Z,0
2018-04-06T18:42:24.541Z,0
2018-04-06T18:47:24.891Z,0
2018-04-06T18:52:24.137Z,0
2018-04-06T18:57:24.500Z,0
2018-04-06T19:02:25.243Z,0
2018-04-06T19:07:24.552Z,0
2018-04-06T19:12:24.774Z,0
2018-04-06T19:17:24.173Z,0
2018-04-06T19:22:24.356Z,0
2018-04-06T19:27:24.743Z,0
2018-04-06T19:32:25.039Z,0
2018-04-06T19:37:24.523Z,0
2018-04-06T19:42:25.057Z,0
2018-04-06T19:47:24.484Z,0
2018-04-06T19:52:24.648Z,0
2018-04-06T19:57:24.940Z,0
2018-04-06T20:02:24.303Z,0
2018-04-06T20:07:24.492Z,0
2018-04-06T20:12:24.944Z,0
2018-04-06T20:17:24.207Z,0
2018-04-06T20:22:24.416Z,0
2018-04-06T20:27:24.783Z,0
2018-04-06T20:32:24.981Z,0
2018-04-06T20:37:24.208Z,0
2018-04-06T20:42:24.334Z,0
2018-04-06T20:47:24.702Z,0
2018-04-06T20:52:25.105Z,0
2018-04-06T20:57:24.372Z,0
2018-04-06T21:02:24.753Z,0
2018-04-06T21:07:25.046Z,0
2018-04-06T21:12:24.333Z,0
2018-04-06T21:17:24.687Z,0
2018-04-06T21:22:24.881Z,0
2018-04-06T21:27:25.021Z,0
2018-04-06T21:32:24.354Z,0
2018-04-06T21:37:24.550Z,0
2018-04-06T21:42:24.781Z,0
2018-04-06T21:47:24.943Z,0
2018-04-06T21:52:24.377Z,0
2018-04-06T21:57:24.603Z,0
2018-04-06T22:02:24.992Z,0
2018-04-06T22:07:24.355Z,0
2018-04-06T22:12:24.793Z,0
2018-04-06T22:17:25.102Z,0
2018-04-06T22:22:24.272Z,0
2018-04-06T22:27:24.577Z,0
2018-04-06T22:32:24.832Z,0
2018-04-06T22:37:25.141Z,0
2018-04-06T22:42:24.317Z,0
2018-04-06T22:47:24.410Z,0
2018-04-06T22:52:24.730Z,0
2018-04-06T22:57:25.015Z,0
2018-04-06T23:02:24.493Z,0
2018-04-06T23:07:24.967Z,0
2018-04-06T23:12:25.269Z,0
2018-04-06T23:17:24.641Z,0
2018-04-06T23:22:24.822Z,0
2018-04-06T23:27:25.139Z,0
2018-04-06T23:32:25.373Z,0
2018-04-06T23:37:25.241Z,0
2018-04-06T23:42:24.859Z,0
2018-04-06T23:47:25.257Z,0
2018-04-06T23:52:24.546Z,0
2018-04-06T23:57:24.729Z,0
